sensor_id;sensor_type;location;lat;lon;timestamp;P1;durP1;ratioP1;P2;durP2;ratioP2
68858;SDS011;55864;49.238;8.092;2023-02-20T00:01:30;8.60;;;2.50;;
68858;SDS011;55864;49.238;8.092;2023-02-20T00:03:32;7.60;;;2.63;;
68858;SDS011;55864;49.238;8.092;2023-02-20T00:05:32;10.07;;;2.90;;
68858;SDS011;55864;49.238;8.092;2023-02-20T00:07:33;7.80;;;2.30;;
68858;SDS011;55864;49.238;8.092;2023-02-20T00:09:34;9.40;;;3.10;;
68858;SDS011;55864;49.238;8.092;2023-02-20T00:11:36;12.00;;;3.23;;
68858;SDS011;55864;49.238;8.092;2023-02-20T00:13:36;10.10;;;2.30;;
68858;SDS011;55864;49.238;8.092;2023-02-20T00:15:37;8.47;;;2.90;;
68858;SDS011;55864;49.238;8.092;2023-02-20T00:17:37;8.43;;;2.47;;
68858;SDS011;55864;49.238;8.092;2023-02-20T00:19:38;9.10;;;2.77;;
68858;SDS011;55864;49.238;8.092;2023-02-20T00:21:43;9.30;;;2.47;;
68858;SDS011;55864;49.238;8.092;2023-02-20T00:23:44;8.83;;;2.97;;
68858;SDS011;55864;49.238;8.092;2023-02-20T00:25:44;10.60;;;2.60;;
68858;SDS011;55864;49.238;8.092;2023-02-20T00:27:46;8.10;;;2.57;;
68858;SDS011;55864;49.238;8.092;2023-02-20T00:29:47;12.37;;;2.93;;
68858;SDS011;55864;49.238;8.092;2023-02-20T00:31:49;9.33;;;2.50;;
68858;SDS011;55864;49.238;8.092;2023-02-20T00:33:50;7.90;;;2.50;;
68858;SDS011;55864;49.238;8.092;2023-02-20T00:35:51;7.93;;;2.67;;
68858;SDS011;55864;49.238;8.092;2023-02-20T00:37:52;9.63;;;3.40;;
68858;SDS011;55864;49.238;8.092;2023-02-20T00:39:54;12.43;;;3.30;;
68858;SDS011;55864;49.238;8.092;2023-02-20T00:41:55;9.97;;;3.20;;
68858;SDS011;55864;49.238;8.092;2023-02-20T00:43:56;11.00;;;2.97;;
68858;SDS011;55864;49.238;8.092;2023-02-20T00:45:57;10.00;;;3.30;;
68858;SDS011;55864;49.238;8.092;2023-02-20T00:47:58;9.70;;;3.20;;
68858;SDS011;55864;49.238;8.092;2023-02-20T00:49:58;10.10;;;3.73;;
68858;SDS011;55864;49.238;8.092;2023-02-20T00:51:59;9.73;;;3.47;;
68858;SDS011;55864;49.238;8.092;2023-02-20T00:53:59;9.77;;;3.60;;
68858;SDS011;55864;49.238;8.092;2023-02-20T00:56:00;9.00;;;2.70;;
68858;SDS011;55864;49.238;8.092;2023-02-20T00:58:00;10.60;;;3.60;;
68858;SDS011;55864;49.238;8.092;2023-02-20T01:00:03;11.53;;;2.67;;
68858;SDS011;55864;49.238;8.092;2023-02-20T01:02:04;9.95;;;2.88;;
68858;SDS011;55864;49.238;8.092;2023-02-20T01:04:05;8.57;;;3.00;;
68858;SDS011;55864;49.238;8.092;2023-02-20T01:06:06;9.90;;;2.70;;
68858;SDS011;55864;49.238;8.092;2023-02-20T01:08:06;9.03;;;2.53;;
68858;SDS011;55864;49.238;8.092;2023-02-20T01:10:07;8.50;;;2.60;;
68858;SDS011;55864;49.238;8.092;2023-02-20T01:12:08;8.30;;;2.67;;
68858;SDS011;55864;49.238;8.092;2023-02-20T01:14:09;10.20;;;2.93;;
68858;SDS011;55864;49.238;8.092;2023-02-20T01:16:13;10.30;;;3.50;;
68858;SDS011;55864;49.238;8.092;2023-02-20T01:18:13;11.50;;;3.67;;
68858;SDS011;55864;49.238;8.092;2023-02-20T01:20:14;8.60;;;3.03;;
68858;SDS011;55864;49.238;8.092;2023-02-20T01:22:14;10.10;;;3.17;;
68858;SDS011;55864;49.238;8.092;2023-02-20T01:24:15;13.73;;;3.57;;
68858;SDS011;55864;49.238;8.092;2023-02-20T01:26:17;10.67;;;3.30;;
68858;SDS011;55864;49.238;8.092;2023-02-20T01:28:17;10.87;;;3.47;;
68858;SDS011;55864;49.238;8.092;2023-02-20T01:30:18;13.67;;;3.30;;
68858;SDS011;55864;49.238;8.092;2023-02-20T01:32:20;11.97;;;4.07;;
68858;SDS011;55864;49.238;8.092;2023-02-20T01:34:21;9.37;;;3.43;;
68858;SDS011;55864;49.238;8.092;2023-02-20T01:36:21;11.57;;;3.13;;
68858;SDS011;55864;49.238;8.092;2023-02-20T01:38:22;8.30;;;3.13;;
68858;SDS011;55864;49.238;8.092;2023-02-20T01:40:23;12.43;;;3.40;;
68858;SDS011;55864;49.238;8.092;2023-02-20T01:42:24;9.83;;;3.37;;
68858;SDS011;55864;49.238;8.092;2023-02-20T01:44:29;11.13;;;3.17;;
68858;SDS011;55864;49.238;8.092;2023-02-20T01:46:49;10.80;;;3.23;;
68858;SDS011;55864;49.238;8.092;2023-02-20T01:48:52;15.93;;;3.43;;
68858;SDS011;55864;49.238;8.092;2023-02-20T01:50:57;13.70;;;3.40;;
68858;SDS011;55864;49.238;8.092;2023-02-20T01:53:01;12.73;;;3.67;;
68858;SDS011;55864;49.238;8.092;2023-02-20T01:55:05;14.20;;;3.37;;
68858;SDS011;55864;49.238;8.092;2023-02-20T01:57:13;11.17;;;3.50;;
68858;SDS011;55864;49.238;8.092;2023-02-20T01:59:16;9.33;;;3.43;;
68858;SDS011;55864;49.238;8.092;2023-02-20T02:01:19;9.30;;;2.95;;
68858;SDS011;55864;49.238;8.092;2023-02-20T02:03:20;11.13;;;3.00;;
68858;SDS011;55864;49.238;8.092;2023-02-20T02:05:25;9.00;;;3.07;;
68858;SDS011;55864;49.238;8.092;2023-02-20T02:07:28;10.73;;;3.43;;
68858;SDS011;55864;49.238;8.092;2023-02-20T02:09:32;9.23;;;3.20;;
68858;SDS011;55864;49.238;8.092;2023-02-20T02:11:38;10.33;;;3.17;;
68858;SDS011;55864;49.238;8.092;2023-02-20T02:13:39;10.20;;;2.90;;
68858;SDS011;55864;49.238;8.092;2023-02-20T02:15:42;8.57;;;3.25;;
68858;SDS011;55864;49.238;8.092;2023-02-20T02:17:51;9.83;;;2.80;;
68858;SDS011;55864;49.238;8.092;2023-02-20T02:22:59;9.50;;;2.87;;
68858;SDS011;55864;49.238;8.092;2023-02-20T02:25:23;11.40;;;3.50;;
68858;SDS011;55864;49.238;8.092;2023-02-20T02:27:47;8.37;;;3.40;;
68858;SDS011;55864;49.238;8.092;2023-02-20T02:30:18;9.23;;;3.30;;
68858;SDS011;55864;49.238;8.092;2023-02-20T02:33:05;10.77;;;3.40;;
68858;SDS011;55864;49.238;8.092;2023-02-20T02:35:30;10.17;;;3.47;;
68858;SDS011;55864;49.238;8.092;2023-02-20T02:38:06;8.60;;;2.90;;
68858;SDS011;55864;49.238;8.092;2023-02-20T02:40:18;9.47;;;3.37;;
68858;SDS011;55864;49.238;8.092;2023-02-20T02:42:28;11.53;;;3.50;;
68858;SDS011;55864;49.238;8.092;2023-02-20T02:44:41;10.03;;;3.53;;
68858;SDS011;55864;49.238;8.092;2023-02-20T02:46:47;15.50;;;3.90;;
68858;SDS011;55864;49.238;8.092;2023-02-20T02:48:55;11.57;;;3.83;;
68858;SDS011;55864;49.238;8.092;2023-02-20T02:51:02;10.27;;;3.60;;
68858;SDS011;55864;49.238;8.092;2023-02-20T02:53:13;10.60;;;3.70;;
68858;SDS011;55864;49.238;8.092;2023-02-20T02:55:15;7.93;;;3.03;;
68858;SDS011;55864;49.238;8.092;2023-02-20T02:57:20;13.05;;;3.85;;
68858;SDS011;55864;49.238;8.092;2023-02-20T02:59:23;11.23;;;3.40;;
68858;SDS011;55864;49.238;8.092;2023-02-20T03:01:27;10.60;;;3.40;;
68858;SDS011;55864;49.238;8.092;2023-02-20T03:03:31;8.90;;;3.53;;
68858;SDS011;55864;49.238;8.092;2023-02-20T03:05:37;9.17;;;3.23;;
68858;SDS011;55864;49.238;8.092;2023-02-20T03:07:42;12.53;;;4.50;;
68858;SDS011;55864;49.238;8.092;2023-02-20T03:09:49;12.10;;;3.90;;
68858;SDS011;55864;49.238;8.092;2023-02-20T03:11:52;10.50;;;3.30;;
68858;SDS011;55864;49.238;8.092;2023-02-20T03:13:58;13.20;;;3.93;;
68858;SDS011;55864;49.238;8.092;2023-02-20T03:16:04;9.53;;;3.80;;
68858;SDS011;55864;49.238;8.092;2023-02-20T03:18:14;11.23;;;3.53;;
68858;SDS011;55864;49.238;8.092;2023-02-20T03:20:21;9.60;;;3.10;;
68858;SDS011;55864;49.238;8.092;2023-02-20T03:22:23;10.37;;;3.60;;
68858;SDS011;55864;49.238;8.092;2023-02-20T03:24:27;10.20;;;3.40;;
68858;SDS011;55864;49.238;8.092;2023-02-20T03:26:33;11.13;;;3.60;;
68858;SDS011;55864;49.238;8.092;2023-02-20T03:28:38;12.70;;;4.43;;
68858;SDS011;55864;49.238;8.092;2023-02-20T03:30:44;10.67;;;3.70;;
68858;SDS011;55864;49.238;8.092;2023-02-20T03:32:50;17.13;;;4.40;;
68858;SDS011;55864;49.238;8.092;2023-02-20T03:34:57;10.13;;;3.93;;
68858;SDS011;55864;49.238;8.092;2023-02-20T03:36:59;11.87;;;3.90;;
68858;SDS011;55864;49.238;8.092;2023-02-20T03:39:05;12.37;;;4.13;;
68858;SDS011;55864;49.238;8.092;2023-02-20T03:41:07;11.68;;;3.70;;
68858;SDS011;55864;49.238;8.092;2023-02-20T03:43:12;14.10;;;3.40;;
68858;SDS011;55864;49.238;8.092;2023-02-20T03:45:17;12.20;;;4.17;;
68858;SDS011;55864;49.238;8.092;2023-02-20T03:47:21;11.17;;;3.90;;
68858;SDS011;55864;49.238;8.092;2023-02-20T03:49:26;12.77;;;4.47;;
68858;SDS011;55864;49.238;8.092;2023-02-20T03:51:32;10.30;;;4.33;;
68858;SDS011;55864;49.238;8.092;2023-02-20T03:53:38;10.90;;;3.70;;
68858;SDS011;55864;49.238;8.092;2023-02-20T03:55:40;10.10;;;3.70;;
68858;SDS011;55864;49.238;8.092;2023-02-20T03:57:45;14.17;;;4.10;;
68858;SDS011;55864;49.238;8.092;2023-02-20T03:59:53;12.20;;;4.00;;
68858;SDS011;55864;49.238;8.092;2023-02-20T04:01:58;15.57;;;4.13;;
68858;SDS011;55864;49.238;8.092;2023-02-20T04:04:02;10.83;;;3.80;;
68858;SDS011;55864;49.238;8.092;2023-02-20T04:06:05;12.17;;;4.07;;
68858;SDS011;55864;49.238;8.092;2023-02-20T04:08:10;11.93;;;4.23;;
68858;SDS011;55864;49.238;8.092;2023-02-20T04:10:18;12.63;;;3.83;;
68858;SDS011;55864;49.238;8.092;2023-02-20T04:12:24;10.47;;;3.97;;
68858;SDS011;55864;49.238;8.092;2023-02-20T04:14:26;10.90;;;4.03;;
68858;SDS011;55864;49.238;8.092;2023-02-20T04:16:33;10.97;;;3.83;;
68858;SDS011;55864;49.238;8.092;2023-02-20T04:18:39;11.73;;;3.83;;
68858;SDS011;55864;49.238;8.092;2023-02-20T04:20:39;11.63;;;3.73;;
68858;SDS011;55864;49.238;8.092;2023-02-20T04:23:04;10.10;;;3.53;;
68858;SDS011;55864;49.238;8.092;2023-02-20T04:25:13;8.53;;;3.73;;
68858;SDS011;55864;49.238;8.092;2023-02-20T04:27:25;10.83;;;3.80;;
68858;SDS011;55864;49.238;8.092;2023-02-20T04:29:30;14.10;;;3.93;;
68858;SDS011;55864;49.238;8.092;2023-02-20T04:31:33;9.80;;;3.90;;
68858;SDS011;55864;49.238;8.092;2023-02-20T04:33:34;15.07;;;4.50;;
68858;SDS011;55864;49.238;8.092;2023-02-20T04:35:39;13.57;;;4.30;;
68858;SDS011;55864;49.238;8.092;2023-02-20T04:37:41;12.80;;;4.27;;
68858;SDS011;55864;49.238;8.092;2023-02-20T04:39:42;11.33;;;4.23;;
68858;SDS011;55864;49.238;8.092;2023-02-20T04:41:43;13.07;;;4.40;;
68858;SDS011;55864;49.238;8.092;2023-02-20T04:43:44;13.27;;;4.13;;
68858;SDS011;55864;49.238;8.092;2023-02-20T04:45:45;13.07;;;4.83;;
68858;SDS011;55864;49.238;8.092;2023-02-20T04:47:47;14.03;;;3.97;;
68858;SDS011;55864;49.238;8.092;2023-02-20T04:49:48;9.80;;;4.03;;
68858;SDS011;55864;49.238;8.092;2023-02-20T04:51:53;9.93;;;3.97;;
68858;SDS011;55864;49.238;8.092;2023-02-20T04:53:55;10.07;;;4.00;;
68858;SDS011;55864;49.238;8.092;2023-02-20T04:55:55;12.50;;;3.90;;
68858;SDS011;55864;49.238;8.092;2023-02-20T04:57:58;13.85;;;4.03;;
68858;SDS011;55864;49.238;8.092;2023-02-20T05:00:03;9.77;;;3.80;;
68858;SDS011;55864;49.238;8.092;2023-02-20T05:02:04;11.60;;;4.13;;
68858;SDS011;55864;49.238;8.092;2023-02-20T05:04:06;11.20;;;3.67;;
68858;SDS011;55864;49.238;8.092;2023-02-20T05:06:06;12.50;;;3.70;;
68858;SDS011;55864;49.238;8.092;2023-02-20T05:08:07;14.23;;;3.60;;
68858;SDS011;55864;49.238;8.092;2023-02-20T05:10:11;11.43;;;3.90;;
68858;SDS011;55864;49.238;8.092;2023-02-20T05:12:12;13.83;;;3.87;;
68858;SDS011;55864;49.238;8.092;2023-02-20T05:14:13;13.33;;;4.10;;
68858;SDS011;55864;49.238;8.092;2023-02-20T05:16:14;10.87;;;3.70;;
68858;SDS011;55864;49.238;8.092;2023-02-20T05:18:22;12.63;;;3.90;;
68858;SDS011;55864;49.238;8.092;2023-02-20T05:20:24;13.47;;;4.30;;
68858;SDS011;55864;49.238;8.092;2023-02-20T05:22:25;11.90;;;4.33;;
68858;SDS011;55864;49.238;8.092;2023-02-20T05:24:25;8.77;;;3.77;;
68858;SDS011;55864;49.238;8.092;2023-02-20T05:26:26;11.10;;;4.00;;
68858;SDS011;55864;49.238;8.092;2023-02-20T05:28:26;8.83;;;3.33;;
68858;SDS011;55864;49.238;8.092;2023-02-20T05:30:27;12.00;;;4.00;;
68858;SDS011;55864;49.238;8.092;2023-02-20T05:32:29;13.23;;;3.57;;
68858;SDS011;55864;49.238;8.092;2023-02-20T05:34:30;10.93;;;3.57;;
68858;SDS011;55864;49.238;8.092;2023-02-20T05:36:32;12.63;;;3.90;;
68858;SDS011;55864;49.238;8.092;2023-02-20T05:38:32;10.77;;;4.00;;
68858;SDS011;55864;49.238;8.092;2023-02-20T05:40:33;13.30;;;4.20;;
68858;SDS011;55864;49.238;8.092;2023-02-20T05:42:33;14.33;;;4.27;;
68858;SDS011;55864;49.238;8.092;2023-02-20T05:44:34;10.93;;;4.03;;
68858;SDS011;55864;49.238;8.092;2023-02-20T05:46:37;13.40;;;4.17;;
68858;SDS011;55864;49.238;8.092;2023-02-20T05:48:39;10.03;;;3.37;;
68858;SDS011;55864;49.238;8.092;2023-02-20T05:50:39;13.10;;;3.97;;
68858;SDS011;55864;49.238;8.092;2023-02-20T05:52:41;9.87;;;3.63;;
68858;SDS011;55864;49.238;8.092;2023-02-20T05:54:44;12.87;;;3.83;;
68858;SDS011;55864;49.238;8.092;2023-02-20T05:56:46;10.25;;;3.92;;
68858;SDS011;55864;49.238;8.092;2023-02-20T05:58:47;15.70;;;4.57;;
68858;SDS011;55864;49.238;8.092;2023-02-20T06:00:48;11.17;;;3.80;;
68858;SDS011;55864;49.238;8.092;2023-02-20T06:02:48;14.60;;;4.10;;
68858;SDS011;55864;49.238;8.092;2023-02-20T06:04:49;13.07;;;3.93;;
68858;SDS011;55864;49.238;8.092;2023-02-20T06:06:50;15.50;;;4.33;;
68858;SDS011;55864;49.238;8.092;2023-02-20T06:08:52;9.00;;;3.93;;
68858;SDS011;55864;49.238;8.092;2023-02-20T06:10:52;14.90;;;4.17;;
68858;SDS011;55864;49.238;8.092;2023-02-20T06:12:53;12.50;;;4.37;;
68858;SDS011;55864;49.238;8.092;2023-02-20T06:14:53;14.73;;;3.90;;
68858;SDS011;55864;49.238;8.092;2023-02-20T06:16:55;9.77;;;3.97;;
68858;SDS011;55864;49.238;8.092;2023-02-20T06:18:56;12.20;;;4.30;;
68858;SDS011;55864;49.238;8.092;2023-02-20T06:20:57;11.13;;;4.20;;
68858;SDS011;55864;49.238;8.092;2023-02-20T06:22:57;9.40;;;4.13;;
68858;SDS011;55864;49.238;8.092;2023-02-20T06:24:59;12.93;;;4.13;;
68858;SDS011;55864;49.238;8.092;2023-02-20T06:26:59;13.93;;;3.70;;
68858;SDS011;55864;49.238;8.092;2023-02-20T06:29:00;10.23;;;3.70;;
68858;SDS011;55864;49.238;8.092;2023-02-20T06:31:00;12.20;;;4.30;;
68858;SDS011;55864;49.238;8.092;2023-02-20T06:33:01;9.73;;;3.83;;
68858;SDS011;55864;49.238;8.092;2023-02-20T06:35:02;9.90;;;4.30;;
68858;SDS011;55864;49.238;8.092;2023-02-20T06:37:02;14.50;;;4.43;;
68858;SDS011;55864;49.238;8.092;2023-02-20T06:39:04;14.50;;;4.07;;
68858;SDS011;55864;49.238;8.092;2023-02-20T06:41:07;12.00;;;4.47;;
68858;SDS011;55864;49.238;8.092;2023-02-20T06:43:07;12.67;;;4.40;;
68858;SDS011;55864;49.238;8.092;2023-02-20T06:45:08;14.13;;;4.13;;
68858;SDS011;55864;49.238;8.092;2023-02-20T06:47:08;11.53;;;4.50;;
68858;SDS011;55864;49.238;8.092;2023-02-20T06:49:09;15.00;;;5.60;;
68858;SDS011;55864;49.238;8.092;2023-02-20T06:51:10;13.23;;;4.87;;
68858;SDS011;55864;49.238;8.092;2023-02-20T06:53:10;12.73;;;4.87;;
68858;SDS011;55864;49.238;8.092;2023-02-20T06:55:11;12.53;;;4.67;;
68858;SDS011;55864;49.238;8.092;2023-02-20T06:57:13;13.57;;;4.60;;
68858;SDS011;55864;49.238;8.092;2023-02-20T06:59:13;9.57;;;4.57;;
68858;SDS011;55864;49.238;8.092;2023-02-20T07:01:14;13.53;;;4.90;;
68858;SDS011;55864;49.238;8.092;2023-02-20T07:03:15;14.17;;;5.20;;
68858;SDS011;55864;49.238;8.092;2023-02-20T07:05:15;15.03;;;4.63;;
68858;SDS011;55864;49.238;8.092;2023-02-20T07:07:16;12.20;;;4.93;;
68858;SDS011;55864;49.238;8.092;2023-02-20T07:09:16;14.17;;;5.17;;
68858;SDS011;55864;49.238;8.092;2023-02-20T07:11:18;13.90;;;5.10;;
68858;SDS011;55864;49.238;8.092;2023-02-20T07:13:21;14.25;;;5.65;;
68858;SDS011;55864;49.238;8.092;2023-02-20T07:15:22;14.97;;;5.53;;
68858;SDS011;55864;49.238;8.092;2023-02-20T07:17:23;12.33;;;5.03;;
68858;SDS011;55864;49.238;8.092;2023-02-20T07:19:23;14.67;;;5.70;;
68858;SDS011;55864;49.238;8.092;2023-02-20T07:21:24;15.80;;;4.97;;
68858;SDS011;55864;49.238;8.092;2023-02-20T07:23:24;12.47;;;4.83;;
68858;SDS011;55864;49.238;8.092;2023-02-20T07:25:25;17.73;;;5.80;;
68858;SDS011;55864;49.238;8.092;2023-02-20T07:27:26;15.47;;;5.93;;
68858;SDS011;55864;49.238;8.092;2023-02-20T07:29:28;16.27;;;6.37;;
68858;SDS011;55864;49.238;8.092;2023-02-20T07:31:28;17.23;;;5.87;;
68858;SDS011;55864;49.238;8.092;2023-02-20T07:33:29;18.07;;;6.37;;
68858;SDS011;55864;49.238;8.092;2023-02-20T07:35:29;14.87;;;6.03;;
68858;SDS011;55864;49.238;8.092;2023-02-20T07:37:35;12.90;;;4.90;;
68858;SDS011;55864;49.238;8.092;2023-02-20T07:39:36;15.37;;;5.00;;
68858;SDS011;55864;49.238;8.092;2023-02-20T07:41:36;18.00;;;6.63;;
68858;SDS011;55864;49.238;8.092;2023-02-20T07:43:38;16.47;;;6.60;;
68858;SDS011;55864;49.238;8.092;2023-02-20T07:45:42;14.10;;;5.67;;
68858;SDS011;55864;49.238;8.092;2023-02-20T07:47:43;12.60;;;5.60;;
68858;SDS011;55864;49.238;8.092;2023-02-20T07:49:43;19.17;;;7.03;;
68858;SDS011;55864;49.238;8.092;2023-02-20T07:51:44;20.70;;;8.50;;
68858;SDS011;55864;49.238;8.092;2023-02-20T07:53:48;18.57;;;7.00;;
68858;SDS011;55864;49.238;8.092;2023-02-20T07:55:49;19.33;;;7.67;;
68858;SDS011;55864;49.238;8.092;2023-02-20T07:57:49;20.23;;;6.77;;
68858;SDS011;55864;49.238;8.092;2023-02-20T07:59:50;19.63;;;6.67;;
68858;SDS011;55864;49.238;8.092;2023-02-20T08:01:52;13.53;;;5.20;;
68858;SDS011;55864;49.238;8.092;2023-02-20T08:03:53;18.20;;;6.10;;
68858;SDS011;55864;49.238;8.092;2023-02-20T08:05:53;15.93;;;5.03;;
68858;SDS011;55864;49.238;8.092;2023-02-20T08:07:54;15.77;;;5.57;;
68858;SDS011;55864;49.238;8.092;2023-02-20T08:09:54;14.00;;;5.57;;
68858;SDS011;55864;49.238;8.092;2023-02-20T08:11:55;13.83;;;5.50;;
68858;SDS011;55864;49.238;8.092;2023-02-20T08:13:55;12.23;;;4.20;;
68858;SDS011;55864;49.238;8.092;2023-02-20T08:15:56;12.30;;;4.83;;
68858;SDS011;55864;49.238;8.092;2023-02-20T08:17:58;12.30;;;4.30;;
68858;SDS011;55864;49.238;8.092;2023-02-20T08:19:58;12.70;;;4.37;;
68858;SDS011;55864;49.238;8.092;2023-02-20T08:21:59;10.83;;;4.23;;
68858;SDS011;55864;49.238;8.092;2023-02-20T08:23:59;15.70;;;5.73;;
68858;SDS011;55864;49.238;8.092;2023-02-20T08:26:01;12.07;;;4.10;;
68858;SDS011;55864;49.238;8.092;2023-02-20T08:28:03;16.98;;;4.03;;
68858;SDS011;55864;49.238;8.092;2023-02-20T08:30:04;15.07;;;4.23;;
68858;SDS011;55864;49.238;8.092;2023-02-20T08:32:08;12.30;;;4.40;;
68858;SDS011;55864;49.238;8.092;2023-02-20T08:34:10;14.38;;;4.35;;
68858;SDS011;55864;49.238;8.092;2023-02-20T08:36:10;11.47;;;4.23;;
68858;SDS011;55864;49.238;8.092;2023-02-20T08:38:21;15.40;;;4.37;;
68858;SDS011;55864;49.238;8.092;2023-02-20T08:40:26;11.27;;;4.37;;
68858;SDS011;55864;49.238;8.092;2023-02-20T08:42:27;13.63;;;3.90;;
68858;SDS011;55864;49.238;8.092;2023-02-20T08:44:27;12.13;;;4.20;;
68858;SDS011;55864;49.238;8.092;2023-02-20T08:46:28;13.37;;;4.40;;
68858;SDS011;55864;49.238;8.092;2023-02-20T08:48:29;12.97;;;4.37;;
68858;SDS011;55864;49.238;8.092;2023-02-20T08:50:30;12.27;;;3.90;;
68858;SDS011;55864;49.238;8.092;2023-02-20T08:52:31;14.57;;;3.90;;
68858;SDS011;55864;49.238;8.092;2023-02-20T08:54:32;12.67;;;4.60;;
68858;SDS011;55864;49.238;8.092;2023-02-20T08:56:32;12.83;;;4.20;;
68858;SDS011;55864;49.238;8.092;2023-02-20T08:58:33;10.43;;;3.70;;
68858;SDS011;55864;49.238;8.092;2023-02-20T09:00:33;12.07;;;4.03;;
68858;SDS011;55864;49.238;8.092;2023-02-20T09:02:34;12.50;;;3.63;;
68858;SDS011;55864;49.238;8.092;2023-02-20T09:04:34;12.50;;;4.37;;
68858;SDS011;55864;49.238;8.092;2023-02-20T09:06:36;11.70;;;4.00;;
68858;SDS011;55864;49.238;8.092;2023-02-20T09:08:37;14.60;;;4.10;;
68858;SDS011;55864;49.238;8.092;2023-02-20T09:10:37;12.50;;;3.97;;
68858;SDS011;55864;49.238;8.092;2023-02-20T09:12:38;11.00;;;3.50;;
68858;SDS011;55864;49.238;8.092;2023-02-20T09:14:38;12.80;;;4.00;;
68858;SDS011;55864;49.238;8.092;2023-02-20T09:16:39;12.10;;;4.00;;
68858;SDS011;55864;49.238;8.092;2023-02-20T09:18:39;10.27;;;3.63;;
68858;SDS011;55864;49.238;8.092;2023-02-20T09:20:40;16.70;;;4.10;;
68858;SDS011;55864;49.238;8.092;2023-02-20T09:22:42;10.30;;;3.70;;
68858;SDS011;55864;49.238;8.092;2023-02-20T09:24:43;13.37;;;4.50;;
68858;SDS011;55864;49.238;8.092;2023-02-20T09:26:46;12.07;;;4.88;;
68858;SDS011;55864;49.238;8.092;2023-02-20T09:28:46;12.57;;;4.60;;
68858;SDS011;55864;49.238;8.092;2023-02-20T09:30:47;10.90;;;4.57;;
68858;SDS011;55864;49.238;8.092;2023-02-20T09:32:48;11.57;;;4.50;;
68858;SDS011;55864;49.238;8.092;2023-02-20T09:34:49;12.97;;;3.80;;
68858;SDS011;55864;49.238;8.092;2023-02-20T09:36:49;16.47;;;4.77;;
68858;SDS011;55864;49.238;8.092;2023-02-20T09:38:51;14.67;;;6.00;;
68858;SDS011;55864;49.238;8.092;2023-02-20T09:40:53;14.70;;;4.67;;
68858;SDS011;55864;49.238;8.092;2023-02-20T09:43:00;13.90;;;5.00;;
68858;SDS011;55864;49.238;8.092;2023-02-20T09:45:08;31.87;;;7.30;;
68858;SDS011;55864;49.238;8.092;2023-02-20T09:47:18;19.73;;;5.60;;
68858;SDS011;55864;49.238;8.092;2023-02-20T09:49:29;13.97;;;5.13;;
68858;SDS011;55864;49.238;8.092;2023-02-20T09:51:33;14.32;;;4.90;;
68858;SDS011;55864;49.238;8.092;2023-02-20T09:53:37;14.70;;;5.13;;
68858;SDS011;55864;49.238;8.092;2023-02-20T09:55:47;17.73;;;5.10;;
68858;SDS011;55864;49.238;8.092;2023-02-20T09:57:49;15.95;;;4.85;;
68858;SDS011;55864;49.238;8.092;2023-02-20T09:59:54;17.90;;;6.00;;
68858;SDS011;55864;49.238;8.092;2023-02-20T10:02:01;14.97;;;5.03;;
68858;SDS011;55864;49.238;8.092;2023-02-20T10:04:13;15.80;;;5.60;;
68858;SDS011;55864;49.238;8.092;2023-02-20T10:06:18;19.17;;;5.90;;
68858;SDS011;55864;49.238;8.092;2023-02-20T10:08:21;16.33;;;5.23;;
68858;SDS011;55864;49.238;8.092;2023-02-20T10:10:23;17.07;;;5.60;;
68858;SDS011;55864;49.238;8.092;2023-02-20T10:12:27;16.58;;;5.35;;
68858;SDS011;55864;49.238;8.092;2023-02-20T10:14:33;19.30;;;5.60;;
68858;SDS011;55864;49.238;8.092;2023-02-20T10:16:46;17.13;;;5.55;;
68858;SDS011;55864;49.238;8.092;2023-02-20T10:18:58;16.50;;;5.43;;
68858;SDS011;55864;49.238;8.092;2023-02-20T10:21:06;14.80;;;5.47;;
68858;SDS011;55864;49.238;8.092;2023-02-20T10:23:16;17.00;;;6.27;;
68858;SDS011;55864;49.238;8.092;2023-02-20T10:25:27;16.67;;;5.17;;
68858;SDS011;55864;49.238;8.092;2023-02-20T10:27:33;14.77;;;5.10;;
68858;SDS011;55864;49.238;8.092;2023-02-20T10:29:42;17.27;;;5.43;;
68858;SDS011;55864;49.238;8.092;2023-02-20T10:31:46;15.27;;;5.37;;
68858;SDS011;55864;49.238;8.092;2023-02-20T10:33:52;16.33;;;5.00;;
68858;SDS011;55864;49.238;8.092;2023-02-20T10:35:59;15.30;;;4.93;;
68858;SDS011;55864;49.238;8.092;2023-02-20T10:38:05;14.93;;;5.07;;
68858;SDS011;55864;49.238;8.092;2023-02-20T10:40:11;36.20;;;14.43;;
68858;SDS011;55864;49.238;8.092;2023-02-20T10:42:18;19.80;;;7.70;;
68858;SDS011;55864;49.238;8.092;2023-02-20T10:44:29;30.67;;;10.77;;
68858;SDS011;55864;49.238;8.092;2023-02-20T10:46:35;22.77;;;9.13;;
68858;SDS011;55864;49.238;8.092;2023-02-20T10:48:39;15.70;;;5.60;;
68858;SDS011;55864;49.238;8.092;2023-02-20T10:50:42;18.00;;;7.53;;
68858;SDS011;55864;49.238;8.092;2023-02-20T10:52:48;16.90;;;6.33;;
68858;SDS011;55864;49.238;8.092;2023-02-20T10:54:54;13.52;;;4.45;;
68858;SDS011;55864;49.238;8.092;2023-02-20T10:57:02;14.00;;;5.30;;
68858;SDS011;55864;49.238;8.092;2023-02-20T10:59:11;26.30;;;6.07;;
68858;SDS011;55864;49.238;8.092;2023-02-20T11:01:20;17.63;;;5.80;;
68858;SDS011;55864;49.238;8.092;2023-02-20T11:03:24;17.03;;;5.53;;
68858;SDS011;55864;49.238;8.092;2023-02-20T11:05:33;12.40;;;4.82;;
68858;SDS011;55864;49.238;8.092;2023-02-20T11:07:37;12.75;;;4.85;;
68858;SDS011;55864;49.238;8.092;2023-02-20T11:09:39;17.60;;;4.80;;
68858;SDS011;55864;49.238;8.092;2023-02-20T11:11:41;11.80;;;4.40;;
68858;SDS011;55864;49.238;8.092;2023-02-20T11:13:43;14.18;;;4.95;;
68858;SDS011;55864;49.238;8.092;2023-02-20T11:15:43;11.60;;;4.40;;
68858;SDS011;55864;49.238;8.092;2023-02-20T11:17:47;13.77;;;4.80;;
68858;SDS011;55864;49.238;8.092;2023-02-20T11:19:51;15.27;;;4.50;;
68858;SDS011;55864;49.238;8.092;2023-02-20T11:21:53;11.73;;;4.72;;
68858;SDS011;55864;49.238;8.092;2023-02-20T11:23:53;12.20;;;3.92;;
68858;SDS011;55864;49.238;8.092;2023-02-20T11:25:54;15.93;;;4.10;;
68858;SDS011;55864;49.238;8.092;2023-02-20T11:28:16;11.88;;;3.85;;
68858;SDS011;55864;49.238;8.092;2023-02-20T11:30:23;12.18;;;4.50;;
68858;SDS011;55864;49.238;8.092;2023-02-20T11:32:32;11.80;;;4.07;;
68858;SDS011;55864;49.238;8.092;2023-02-20T11:34:36;13.30;;;4.18;;
68858;SDS011;55864;49.238;8.092;2023-02-20T11:36:38;11.20;;;3.33;;
68858;SDS011;55864;49.238;8.092;2023-02-20T11:38:44;12.10;;;3.67;;
68858;SDS011;55864;49.238;8.092;2023-02-20T11:40:45;10.93;;;3.88;;
68858;SDS011;55864;49.238;8.092;2023-02-20T11:42:48;15.65;;;5.60;;
68858;SDS011;55864;49.238;8.092;2023-02-20T11:44:51;13.80;;;3.83;;
68858;SDS011;55864;49.238;8.092;2023-02-20T11:49:22;9.57;;;3.13;;
68858;SDS011;55864;49.238;8.092;2023-02-20T11:53:32;12.38;;;2.95;;
68858;SDS011;55864;49.238;8.092;2023-02-20T11:55:33;8.68;;;3.03;;
68858;SDS011;55864;49.238;8.092;2023-02-20T11:57:41;11.15;;;3.20;;
68858;SDS011;55864;49.238;8.092;2023-02-20T11:59:47;11.68;;;3.33;;
68858;SDS011;55864;49.238;8.092;2023-02-20T12:01:48;12.55;;;4.10;;
68858;SDS011;55864;49.238;8.092;2023-02-20T12:03:53;14.50;;;6.10;;
68858;SDS011;55864;49.238;8.092;2023-02-20T12:05:56;11.02;;;2.85;;
68858;SDS011;55864;49.238;8.092;2023-02-20T12:07:59;12.68;;;2.90;;
68858;SDS011;55864;49.238;8.092;2023-02-20T12:10:00;11.48;;;4.57;;
68858;SDS011;55864;49.238;8.092;2023-02-20T12:12:11;12.70;;;3.13;;
68858;SDS011;55864;49.238;8.092;2023-02-20T12:14:13;8.52;;;2.63;;
68858;SDS011;55864;49.238;8.092;2023-02-20T12:16:21;8.40;;;2.97;;
68858;SDS011;55864;49.238;8.092;2023-02-20T12:18:41;15.05;;;3.22;;
68858;SDS011;55864;49.238;8.092;2023-02-20T12:20:51;10.93;;;3.10;;
68858;SDS011;55864;49.238;8.092;2023-02-20T12:23:00;9.82;;;3.42;;